Sandy Lake Airport
CZSJ : now visible

Airfield :











YOU CAN JOIN US ON...

 
LOGIN :

Register | Disclaimer

   EN    FR    IT 

 









Legend :    VFR   Marginal VFR   IFR   Intensive IFR   Very Intensive IFR
Visi :
Ceiling :
>= 8 km
>= 3000ft
5 to 8 km
1000 to 3000 ft
1500m to 5 km
500 to 1000 ft
800 to 1500m
200 to 500 ft
< 800m
< 200 ft
Symbols :   Thunderstorms  Fog  Heavy snow  Heavy precipitations  Wind > 20 kt







- Airport Elevation : 951 ft
- IATA code : ZSJ


CZSJ - Sandy Lake

CURRENT METAR :
  • 211100Z AUTO 00000KT 9SM CLR 02/01 A3015 RMK SLP223

EXPIRED METARs :
  • 211000Z AUTO 19003KT 9SM CLR 04/03 A3016 RMK SLP224
  • 210900Z AUTO 18003KT 9SM CLR 02/00 A3014 RMK SLP219

TAF TAF CZSJ
Valid from the 21 at 10:00 until the 21 at 22:00 UTC


210938Z 2110/2122 VRB03KT P6SM FEW140 RMK FCST BASED ON AUTO OBS. NXT FCST BY 211600Z
CZWG FIR / North America



MET'MAP, your aeronautical weather chart ! - Copyright ORBIFLY December 2007 - Disclaimer

ORBIFLY MET'MAP TEAM :

Programming & Development : Alexandra Zaïnal
Concept & Development : Baudouin d'Aumeries
Co-Development & Prog : Marc-Olivier Méhu
Technical & hardware support : Manuel Goepfert

Contact : metmap@orbifly.com




SOURCES & CREDITS :

   NOAA       Earth
Advisory